Mohamed Tahrat

Chefscout - USM Alger
11 Mär 2027
Donnerstag
Verarbeitung

Persönlichkeit

Anpassungsfähigkeit (16) Ehrgeiz (14) Kontroverse (16) Loyalität (7) Druck (3) Professionalität (1) Fairness (13) Temperament (8)

Profil

Trainerstil Demokratisch
Lizenz Kontinentale B
Entschlossenheit 9
Menschenführung 4
Motivation 9
Disziplin 6
Arbeitszufriedenheit
50%
Ermüdung
0%
Rolle Chefscout
Gehalt 62.3K p/W
Vertrag 14.03.2029

Leistung

Verhalten Normal
Trainingseffektivität
24%
Spielerentwicklung
45%
Verletzungsprävention
20%
Taktische Umsetzung
55%

Letzte Ereignisse

Spieler begutachtet jetzt
Nahm an einer Scouting-Besprechung teil jetzt
Sprach sich gegen ein Transferziel aus jetzt
Nahm an einer Scouting-Besprechung teil jetzt
Nahm an einer Scouting-Besprechung teil jetzt
Nahm an einer Scouting-Besprechung teil jetzt
Spieler begutachtet 7T her
Spieler begutachtet 7T her

Aktuell beobachtet

148
Spieler Verein Status Fähigkeit Vertrauen Beobachtet Zuletzt beobachtet Letzte Stimme
Musa Barrow Al-Khaleej Aktiv 146 / 122 40% 4 10.03.2027 -
Wesley Pomba Veres Aktiv 119 / 98 40% 1 10.03.2027 -
Brayan León Mamelodi Sundowns Aktiv 125 / 125 40% 2 09.03.2027 -
Themba Ngcobo SuperSport United Aktiv 115 / 126 40% 1 09.03.2027 -
Moussa Koné Al-Ra'ed Aktiv 123 / 116 40% 2 08.03.2027 -
Dani Gómez Zaragoza Aktiv 108 / 132 40% 1 08.03.2027 -
Martin Sekulić Ural Aktiv 123 / 110 40% 2 07.03.2027 -
François Kamano Sochi Aktiv 129 / 102 40% 1 07.03.2027 -
Zaydou Youssouf Al-Fateh Aktiv 117 / 135 40% 1 07.03.2027 -
Radhi Al-Otaibi Al-Ettifaq Aktiv 100 / 117 40% 1 07.03.2027 -
Crysencio Summerville Al-Hilal Aktiv 146 / 152 40% 2 04.03.2027 -
Keagan Mothiba SuperSport United Aktiv 122 / 123 40% 2 04.03.2027 -
Steven Bergwijn Al-Ittihad Aktiv 160 / 157 40% 4 04.03.2027 -
Youssef En-Nesyri Al-Ittihad Aktiv 132 / 150 40% 2 04.03.2027 -
Ahmed Al-Nakhli Al-Hazem Aktiv 114 / 112 40% 1 03.03.2027 -
Mduduzi Shabalala Kaizer Chiefs Aktiv 126 / 128 40% 1 03.03.2027 -
Matheus Gonçalves Al-Ahli Aktiv 143 / 136 40% 5 02.03.2027 -
Bandar Saeed Al Shaab Aktiv 105 / 103 40% 1 02.03.2027 -
Mihai Lixandru Al-Fateh Aktiv 125 / 111 40% 2 27.02.2027 -
Evidence Makgopa Orlando Pirates Aktiv 131 / 105 40% 2 27.02.2027 -
Oswin Appollis Orlando Pirates Aktiv 107 / 126 40% 1 27.02.2027 -
Etiosa Ighodaro Kaizer Chiefs Aktiv 113 / 114 40% 1 27.02.2027 -
Lewis Morgan SuperSport United Aktiv 116 / 118 40% 2 26.02.2027 -
Jacques Siwe Rubin Aktiv 119 / 111 40% 2 23.02.2027 -
Wilfried Kanga Al-Fateh Aktiv 108 / 134 40% 2 23.02.2027 -
Leandro Antunes Al-Riyadh Aktiv 123 / 119 40% 1 22.02.2027 -
Vladimir Khubulov Dinamo Makhachkala Aktiv 102 / 117 40% 1 21.02.2027 -
Vyacheslav Grulev Nizhniy Novgorod Aktiv 127 / 105 40% 1 21.02.2027 -
Hlompho Lorch Ajax Cape Town Aktiv 86 / 110 40% 1 21.02.2027 -
Kazunari Kita Real Sociedad Aktiv 105 / 95 40% 1 21.02.2027 -
Valentin Atangana Al-Ahli Aktiv 135 / 141 40% 1 20.02.2027 -
Edarlyn Reyes Arsenal Tula Aktiv 102 / 97 40% 1 19.02.2027 -
Václav Sejk Sigma Olomouc Aktiv 97 / 128 40% 1 19.02.2027 -
Mohammad Alsalkhadi Damac Aktiv 97 / 102 40% 1 16.02.2027 -
Haitham Asiri Al-Qadisiyah Aktiv 101 / 96 40% 1 15.02.2027 -
Nicolás Andereggen Ethnikos Achnas Aktiv 95 / 97 40% 1 15.02.2027 -
Mikhail Ignatov Sochi Aktiv 116 / 116 40% 1 12.02.2027 -
Younes El Bahraoui Al-Taawoun Aktiv 124 / 106 40% 2 11.02.2027 -
Josh Smith Accrington Stanley Aktiv 74 / 78 40% 1 11.02.2027 -
Tiago Freitas Benfica Aktiv 103 / 116 40% 1 11.02.2027 -
Ali Majrashi Al-Ahli Aktiv 140 / 140 40% 2 10.02.2027 Mehr Infos nötig
Mandla Mahlangu Ajax Cape Town Aktiv 97 / 93 40% 1 10.02.2027 -
Chinedu Geoffrey Krylya Sovetov Aktiv 100 / 109 40% 1 10.02.2027 -
Juan Brunetta Tigres Aktiv 128 / 135 40% 2 08.02.2027 -
Everton Bala Levski Aktiv 121 / 133 40% 1 06.02.2027 -
Billal Messaoudi JS Kabylie Aktiv 120 / 120 40% 2 05.02.2027 -
Leandro Godoy CSKA Sofia Aktiv 125 / 120 40% 1 04.02.2027 -
Mohau Nkota Al-Ettifaq Aktiv 138 / 132 40% 3 03.02.2027 Beobachten
Haji Wright Coventry City Aktiv 120 / 142 40% 1 03.02.2027 -
Mandla Erasmus SuperSport United Verloren 103 / 118 40% 1 25.01.2027 -
Radhi Al-Otaibi Al-Ettifaq Verloren 127 / 123 40% 1 25.01.2027 -
Mandla Erasmus SuperSport United Verloren 118 / 113 40% 3 18.01.2027 -
Billal Messaoudi JS Kabylie Verloren 105 / 113 55% 1 18.01.2027 -
Franco Romero Toluca Verloren 138 / 116 40% 1 18.01.2027 -
Hamdi Labidi Olympique Akbou Verloren 109 / 113 55% 1 07.01.2027 -
Mahamadou Doumbia Al-Ittihad Aktiv 136 / 143 40% 3 02.01.2027 -
Eduard Spertsyan Al-Ahli Aktiv 128 / 149 40% 1 02.01.2027 -
Yegor Koshkin Pobeda Aktiv 83 / 84 40% 2 30.12.2026 -
Demián Talavera San Lorenzo Aktiv 100 / 91 40% 2 30.12.2026 -
Dion Lopy Al-Ittihad Aktiv 121 / 142 40% 1 30.12.2026 -
Sergio Arribas Almería Aktiv 149 / 129 40% 1 28.12.2026 -
Abdalla Zaal HJK Aktiv 91 / 64 40% 1 28.12.2026 -
Mayed Al-Kaabi Sharjah Aktiv 76 / 87 40% 2 27.12.2026 -
Lautaro Cueli San Lorenzo Aktiv 109 / 104 40% 1 27.12.2026 -
Fabricio Díaz San Lorenzo Aktiv 82 / 84 40% 4 26.12.2026 -
Williams Mothiba Black Aces Aktiv 98 / 102 40% 6 26.12.2026 Ablehnen
Tshepang Moremi Orlando Pirates Aktiv 119 / 111 40% 2 25.12.2026 -
Turki Al-Ammar Al-Qadisiyah Aktiv 106 / 115 40% 2 25.12.2026 -
Omar Kamel Al Ahly Aktiv 86 / 81 40% 3 23.12.2026 -
Christopher Bonsu Baah Al-Qadisiyah Aktiv 130 / 138 40% 2 23.12.2026 -
Finlay Herrick West Ham United Aktiv 86 / 108 40% 1 23.12.2026 -
Ronaldo Rostov Aktiv 110 / 122 40% 1 23.12.2026 -
Lucio Latorre Racing Club Aktiv 76 / 107 40% 2 21.12.2026 -
Eyad Tamer Arab Contractors Aktiv 81 / 88 40% 3 21.12.2026 -
Ângelo Al-Nassr Aktiv 139 / 136 40% 3 21.12.2026 -
Gift Hlatshwayo Free State Stars Aktiv 102 / 113 40% 7 19.12.2026 -
Hazem Gamal Al Ahly Aktiv 82 / 76 40% 2 19.12.2026 -
Gonçalo Silva Porto Aktiv 100 / 83 40% 2 18.12.2026 Mehr Infos nötig
Yury Maleev Ural Aktiv 82 / 80 40% 1 18.12.2026 -
Dhari Al-Anazi Al-Shabab Aktiv 100 / 112 40% 1 18.12.2026 -
Agustín Chávez Unión de Santa Fe Verloren 114 / 96 40% 2 15.12.2026 -
Mohamed Abdelfattah Zamalek Aktiv 81 / 78 40% 4 13.12.2026 -
Hamed Al-Ghamdi Al-Ittihad Aktiv 120 / 98 40% 1 13.12.2026 -
Mohamed Tarek ENPPI Aktiv 82 / 85 40% 1 12.12.2026 -
Bonheur Mugisha Al-Hazem Aktiv 108 / 106 40% 1 07.12.2026 -
José Paradela Cruz Azul Aktiv 159 / 143 40% 1 05.12.2026 -
Ignacio Coscio Huracán Aktiv 93 / 100 40% 1 03.12.2026 -
Maxim Shichanin Zenit Aktiv 91 / 103 40% 1 03.12.2026 -
Kornel Miściur Liverpool Aktiv 101 / 98 40% 1 01.12.2026 -
Youssef Beshir ENPPI Aktiv 78 / 70 40% 1 30.11.2026 -
Milson Al Jazira Aktiv 132 / 108 40% 1 30.11.2026 -
Roger Fernandes Al-Ittihad Aktiv 147 / 125 40% 1 30.11.2026 -
Yasser Al-Sultan Al-Mojzel Aktiv 74 / 77 40% 4 26.11.2026 -
Santiago Ferez Belgrano Aktiv 78 / 98 40% 1 25.11.2026 -
Ahmed Menshawi Ittihad Aktiv 86 / 93 40% 3 24.11.2026 -
Ahmed Waheb Zlate Moravce Aktiv 62 / 83 40% 1 24.11.2026 -
Prince Guèye Al Wahda Aktiv 74 / 110 40% 4 23.11.2026 -
Hamza Khaled Petrojet Aktiv 70 / 82 40% 1 23.11.2026 -
Greisha New Edubiase United Aktiv 85 / 77 40% 1 22.11.2026 -
Kristijan Vlasic Zadar Aktiv 74 / 75 40% 2 21.11.2026 -
Mateo Raschia Unión de Santa Fe Aktiv 92 / 112 40% 1 20.11.2026 -
Mehdi Ghayedi Al Nasr Aktiv 114 / 130 40% 1 20.11.2026 -
Guilherme Pires Sporting CP Aktiv 75 / 105 40% 2 18.11.2026 -
Serginho Al Wasl Aktiv 114 / 116 40% 1 18.11.2026 -
Samú Al-Nassr Aktiv 144 / 157 40% 1 18.11.2026 Mehr Infos nötig
Tommaso Orsini Sambenedettese Aktiv 106 / 96 40% 1 16.11.2026 -
Abdelrahman Mahrous Ismaily Aktiv 66 / 74 40% 1 15.11.2026 -
Thiago Perruisset Boca Juniors Aktiv 77 / 92 40% 1 15.11.2026 -
Axell Amaral Al Ain Aktiv 85 / 90 40% 3 13.11.2026 -
Fernando Bravo Independiente Rivadavia Aktiv 98 / 108 40% 1 12.11.2026 -
Aiman Yahya Al-Nassr Aktiv 115 / 119 40% 2 10.11.2026 -
Daniel Kyerewaa Reading Aktiv 128 / 114 40% 1 10.11.2026 -
Lautaro Vera Platense Aktiv 92 / 99 40% 1 05.11.2026 -
Enrique Maza Atlético Tucumán Aktiv 78 / 90 40% 1 05.11.2026 -
Marcos Ferreira Miramar Misiones Aktiv 89 / 101 40% 3 04.11.2026 -
Ramiro Buratti River Plate Aktiv 102 / 85 40% 1 30.10.2026 -
David Cordova Atletico Venezuela Aktiv 84 / 110 40% 2 29.10.2026 -
Richard Medvedev Khazar Aktiv 99 / 111 40% 2 29.10.2026 -
Luis Montilla San Telmo Aktiv 76 / 110 40% 1 28.10.2026 -
Parfait Guiagon Al-Taawoun Aktiv 133 / 134 40% 1 23.10.2026 -
Jadsom Al Wahda Aktiv 144 / 126 40% 1 23.10.2026 -
Falah Al-Shamri Al-Batin Aktiv 85 / 89 40% 1 19.10.2026 -
Andrew Rick Philadelphia Union Aktiv 83 / 118 40% 2 18.10.2026 -
Federico Bonilla Nacional Aktiv 100 / 92 40% 1 18.10.2026 -
Jerónimo Gutiérrez Independiente Rivadavia Aktiv 89 / 105 40% 1 16.10.2026 -
Abdulrahman Al-Otaibi Al-Nassr Aktiv 75 / 68 40% 1 16.10.2026 -
Ibrahim Yaqoob Al Ahli Aktiv 106 / 115 40% 1 16.10.2026 -
Valentín Díaz Temperley Aktiv 88 / 95 40% 1 13.10.2026 -
Adam Gnezda Čerin Al Wahda Aktiv 116 / 107 40% 1 12.10.2026 -
Francisco Trincão Zenit Aktiv 158 / 148 40% 1 10.10.2026 -
Omar Abdelaziz Zamalek Aktiv 71 / 94 40% 1 08.10.2026 -
Emiliano Zacca Deportivo Riestra Aktiv 90 / 110 40% 1 07.10.2026 -
Khari Ranson Arsenal Aktiv 89 / 83 40% 1 06.10.2026 -
Naphtali Mokoena FC Lahti Aktiv 97 / 86 40% 1 02.10.2026 -
Jakub Badžgoň MSK Zilina Aktiv 94 / 94 40% 1 26.09.2026 -
Santiago Gutiérrez Fehervar Aktiv 74 / 76 40% 1 24.09.2026 -
Valentín Catalán Argentinos Juniors Aktiv 96 / 103 40% 1 23.09.2026 -
Andy Ezekiel Chikhura Aktiv 83 / 83 40% 1 23.09.2026 -
Rafael Hornos Liverpool Montevideo Aktiv 96 / 103 40% 1 22.09.2026 -
Ignacio Abarza Huracán Aktiv 86 / 76 40% 2 21.09.2026 -
Matías Molina Independiente Aktiv 109 / 94 40% 1 21.09.2026 -
Adrián Csenterics Estudiantes de Merida Aktiv 105 / 107 40% 2 19.09.2026 -
Eduardo Villanueva Colo-Colo Aktiv 72 / 80 40% 1 16.09.2026 -
Santiago Garro Almirante Brown Aktiv 71 / 82 40% 1 13.09.2026 -
Alfonso Álvarez Ferro Carril Oeste Aktiv 94 / 111 40% 1 09.09.2026 -
Gerardo Díaz San Martín SJ Aktiv 103 / 89 40% 1 08.09.2026 -
Ramón Mierez Al Nasr Aktiv 137 / 105 40% 1 17.08.2026 -
Abdelkader Boussaid ASO Chlef Aktiv 98 / 82 51% 1 10.08.2026 -